Time;durP1;ratioP1;P1;durP2;ratioP2;P2;SDS_P1;SDS_P2;PMS_P1;PMS_P2;Temp;Humidity;BMP_temperature;BMP_pressure;BME280_temperature;BME280_humidity;BME280_pressure;Samples;Min_cycle;Max_cycle;Signal;HPM_P1;HPM_P2
2021/12/04 00:00:27;;;;;;;13.98;8.82;;;1.90;99.90;;;;;;4974690;28;20502;-70
2021/12/04 00:02:53;;;;;;;9.40;8.40;;;1.90;99.90;;;;;;4974956;28;20170;-70
2021/12/04 00:05:21;;;;;;;8.57;7.63;;;1.90;99.90;;;;;;4975473;28;20019;-74
2021/12/04 00:07:47;;;;;;;18.55;8.52;;;2.00;99.90;;;;;;4975603;28;20027;-68
2021/12/04 00:10:21;;;;;;;14.88;9.18;;;1.90;99.90;;;;;;4975115;28;20034;-71
2021/12/04 00:12:47;;;;;;;;;;;1.90;99.90;;;;;;4975270;28;20027;-71
2021/12/04 00:15:13;;;;;;;14.10;9.85;;;1.90;99.90;;;;;;4975098;28;19917;-71
2021/12/04 00:20:08;;;;;;;12.25;8.85;;;2.00;99.90;;;;;;5067103;23;20541;-71
2021/12/04 00:22:34;;;;;;;15.68;9.05;;;;;;;;;;5032825;28;20027;-71
2021/12/04 00:25:00;;;;;;;17.90;7.75;;;2.10;99.90;;;;;;5033785;28;20076;-70
2021/12/04 00:27:25;;;;;;;14.15;9.00;;;2.20;99.90;;;;;;5033283;28;20037;-71
2021/12/04 00:29:51;;;;;;;16.30;8.77;;;2.20;99.90;;;;;;5032498;28;20026;-71
2021/12/04 00:32:39;;;;;;;13.80;8.23;;;;;;;;;;5033269;28;20082;-70
2021/12/04 00:35:20;;;;;;;12.02;8.15;;;2.30;99.90;;;;;;5033412;28;20075;-71
2021/12/04 00:43:22;;;;;;;14.60;7.38;;;;;;;;;;5033436;28;20052;-70
2021/12/04 00:51:17;;;;;;;15.60;9.55;;;2.20;99.90;;;;;;5013462;28;20033;-70
2021/12/04 00:53:42;;;;;;;15.35;8.20;;;3.00;99.90;;;;;;5012729;28;20084;-70
2021/12/04 00:56:08;;;;;;;9.88;8.35;;;1.70;99.90;;;;;;5008143;28;20063;-70
2021/12/04 00:58:34;;;;;;;18.20;10.68;;;;;;;;;;5011124;28;20022;-71
2021/12/04 01:01:00;;;;;;;13.98;9.43;;;2.10;99.90;;;;;;5002190;28;20113;-70
2021/12/04 01:03:26;;;;;;;13.18;8.95;;;;;;;;;;5012911;28;20072;-71
2021/12/04 01:05:52;;;;;;;15.82;10.68;;;;;;;;;;5005793;28;20049;-70
2021/12/04 01:08:18;;;;;;;10.60;8.73;;;;;;;;;;5013353;28;20539;-70
2021/12/04 01:10:44;;;;;;;10.57;8.13;;;2.10;99.90;;;;;;5013553;28;20034;-70
2021/12/04 01:13:12;;;;;;;14.68;9.52;;;2.30;99.90;;;;;;5011535;28;20028;-70
2021/12/04 01:15:43;;;;;;;12.90;9.05;;;2.20;99.90;;;;;;5012717;28;20378;-71
2021/12/04 01:18:10;;;;;;;13.20;8.98;;;2.30;99.90;;;;;;5014393;28;20033;-70
2021/12/04 01:20:36;;;;;;;16.00;9.07;;;2.20;99.90;;;;;;5033677;28;20029;-70
2021/12/04 01:23:03;;;;;;;12.88;8.65;;;2.30;99.90;;;;;;5032761;28;20026;-70
2021/12/04 01:25:29;;;;;;;19.95;9.48;;;2.30;99.90;;;;;;5032886;28;20017;-71
2021/12/04 01:27:54;;;;;;;11.70;9.35;;;2.30;99.90;;;;;;5012817;28;20073;-70
2021/12/04 01:30:20;;;;;;;12.27;9.35;;;;;;;;;;5011309;28;20498;-70
2021/12/04 01:32:46;;;;;;;10.10;9.10;;;2.30;99.90;;;;;;5012368;28;20058;-70
2021/12/04 01:35:12;;;;;;;15.10;8.77;;;;;;;;;;5012436;28;20029;-70
2021/12/04 01:37:38;;;;;;;10.05;9.10;;;;;;;;;;5010368;28;20026;-71
2021/12/04 01:40:05;;;;;;;10.10;8.20;;;2.30;99.90;;;;;;5011057;28;20486;-71
2021/12/04 01:42:35;;;;;;;10.63;8.60;;;2.30;99.90;;;;;;5010466;28;20445;-70
2021/12/04 01:45:00;;;;;;;16.13;9.80;;;2.30;99.90;;;;;;5002266;28;20487;-70
2021/12/04 01:47:26;;;;;;;15.18;10.23;;;;;;;;;;5006964;28;20084;-71
2021/12/04 01:49:54;;;;;;;10.18;9.13;;;;;;;;;;5014195;28;20108;-70
2021/12/04 01:52:20;;;;;;;11.20;8.82;;;;;;;;;;5011806;28;20033;-70
2021/12/04 01:54:47;;;;;;;12.80;9.68;;;2.30;99.90;;;;;;5014909;28;20026;-70
2021/12/04 01:57:16;;;;;;;12.63;10.52;;;2.20;99.90;;;;;;5000753;28;20189;-70
2021/12/04 01:59:44;;;;;;;17.40;10.68;;;2.30;99.90;;;;;;5002869;28;20101;-69
2021/12/04 02:02:10;;;;;;;10.77;9.48;;;2.30;99.90;;;;;;5011806;28;20474;-70
2021/12/04 02:04:36;;;;;;;12.43;10.25;;;2.30;99.90;;;;;;5011092;28;20422;-70
2021/12/04 02:07:04;;;;;;;18.23;11.27;;;2.30;99.90;;;;;;5011862;28;20057;-70
2021/12/04 02:09:34;;;;;;;18.75;10.98;;;2.30;99.90;;;;;;5012046;28;20026;-69
2021/12/04 02:12:03;;;;;;;13.50;9.73;;;2.40;99.90;;;;;;5011749;28;20037;-70
2021/12/04 02:14:29;;;;;;;12.90;9.70;;;;;;;;;;5012113;28;20112;-70
2021/12/04 02:16:55;;;;;;;14.68;8.55;;;2.40;99.90;;;;;;5011467;28;20080;-70
2021/12/04 02:19:20;;;;;;;16.73;10.63;;;;;;;;;;5012039;28;20491;-70
2021/12/04 02:21:46;;;;;;;13.55;9.75;;;2.30;99.90;;;;;;5011134;28;20026;-70
2021/12/04 02:24:12;;;;;;;10.93;9.35;;;;;;;;;;5010413;28;20487;-70
2021/12/04 02:26:38;;;;;;;11.95;9.40;;;2.40;99.90;;;;;;5011805;28;20037;-69
2021/12/04 02:29:04;;;;;;;11.77;10.50;;;2.40;99.90;;;;;;5011932;28;20030;-71
2021/12/04 02:31:30;;;;;;;10.00;8.70;;;;;;;;;;5011802;28;20030;-69
2021/12/04 02:33:56;;;;;;;22.02;9.70;;;;;;;;;;5010105;28;20080;-70
2021/12/04 02:36:22;;;;;;;10.50;9.15;;;2.30;99.90;;;;;;5012110;28;20022;-70
2021/12/04 02:38:51;;;;;;;14.45;9.55;;;2.30;99.90;;;;;;5012445;28;20121;-70
2021/12/04 02:41:19;;;;;;;15.77;10.48;;;2.40;99.90;;;;;;5010447;28;20025;-70
2021/12/04 02:43:45;;;;;;;21.70;10.13;;;2.20;99.90;;;;;;5011712;28;20502;-71
2021/12/04 02:46:12;;;;;;;14.80;11.18;;;2.50;99.90;;;;;;5013598;28;20502;-70
2021/12/04 02:48:37;;;;;;;13.38;10.65;;;2.40;99.90;;;;;;5011753;28;20030;-69
2021/12/04 02:51:03;;;;;;;25.60;10.35;;;2.40;99.90;;;;;;5011185;28;20033;-71
2021/12/04 02:53:28;;;;;;;17.70;10.27;;;2.00;99.90;;;;;;5010998;28;20045;-69
2021/12/04 02:55:54;;;;;;;13.57;9.80;;;2.70;99.90;;;;;;5011442;28;20101;-69
2021/12/04 02:58:21;;;;;;;11.55;10.45;;;2.60;99.90;;;;;;5010639;28;20026;-67
2021/12/04 03:00:51;;;;;;;11.60;10.05;;;2.70;99.90;;;;;;5011243;28;20056;-69
2021/12/04 03:03:19;;;;;;;11.45;8.80;;;2.60;99.90;;;;;;5011362;28;20076;-70
2021/12/04 03:05:48;;;;;;;15.70;9.77;;;2.50;99.90;;;;;;5011953;28;20077;-70
2021/12/04 03:08:14;;;;;;;11.35;9.32;;;2.50;99.90;;;;;;5009632;28;20022;-70
2021/12/04 03:10:40;;;;;;;13.10;11.02;;;2.40;99.90;;;;;;5011263;28;20034;-69
2021/12/04 03:13:09;;;;;;;10.32;9.27;;;;;;;;;;5011114;28;20033;-70
2021/12/04 03:15:37;;;;;;;13.93;10.82;;;2.50;99.90;;;;;;4993486;28;20487;-70
2021/12/04 03:18:03;;;;;;;12.18;9.60;;;2.60;99.90;;;;;;5013299;28;20120;-69
2021/12/04 03:20:29;;;;;;;12.60;9.70;;;2.50;99.90;;;;;;5014996;28;20133;-69
2021/12/04 03:22:59;;;;;;;14.45;9.93;;;2.50;99.90;;;;;;5014701;28;20101;-70
2021/12/04 03:25:25;;;;;;;15.98;10.25;;;2.50;99.90;;;;;;5014673;28;20080;-69
2021/12/04 03:27:51;;;;;;;10.63;9.52;;;2.60;99.90;;;;;;5014232;28;20085;-70
2021/12/04 03:30:46;;;;;;;18.08;10.02;;;2.50;99.90;;;;;;5013971;28;20105;-70
2021/12/04 03:41:07;;;;;;;11.20;10.00;;;2.70;99.90;;;;;;5017778;28;20096;-70
2021/12/04 03:43:33;;;;;;;10.85;9.77;;;;;;;;;;5018532;28;20441;-69
2021/12/04 03:46:02;;;;;;;13.15;9.35;;;2.80;99.90;;;;;;5014954;28;20033;-70
2021/12/04 03:50:54;;;;;;;11.00;8.68;;;2.80;99.90;;;;;;5033388;28;20042;-70
2021/12/04 03:53:20;;;;;;;14.80;9.63;;;2.90;99.90;;;;;;5034654;28;20033;-70
2021/12/04 03:55:46;;;;;;;12.73;9.50;;;2.90;99.90;;;;;;5031939;28;20034;-69
2021/12/04 03:58:11;;;;;;;12.35;9.40;;;2.80;99.90;;;;;;5015667;28;20435;-69
2021/12/04 04:00:37;;;;;;;12.25;9.85;;;2.80;99.90;;;;;;5013778;28;20101;-69
2021/12/04 04:03:03;;;;;;;16.40;9.32;;;2.80;99.90;;;;;;5013753;28;20034;-69
2021/12/04 04:05:28;;;;;;;10.52;9.52;;;2.80;99.90;;;;;;5014219;28;20133;-69
2021/12/04 04:07:54;;;;;;;21.17;10.93;;;2.80;99.90;;;;;;5013678;28;20084;-69
2021/12/04 04:10:21;;;;;;;11.52;10.38;;;2.80;99.90;;;;;;5013702;28;20614;-68
2021/12/04 04:12:47;;;;;;;12.88;9.60;;;2.80;99.90;;;;;;5024518;28;20030;-71
2021/12/04 04:15:12;;;;;;;10.93;9.85;;;2.80;99.90;;;;;;5032821;28;20065;-70
2021/12/04 04:17:42;;;;;;;12.50;10.30;;;2.90;99.90;;;;;;5033009;28;20050;-72
2021/12/04 04:20:10;;;;;;;11.05;9.80;;;2.90;99.90;;;;;;5032929;28;20040;-70
2021/12/04 04:22:35;;;;;;;15.30;10.88;;;2.90;99.90;;;;;;5015099;28;20026;-70
2021/12/04 04:25:01;;;;;;;15.20;9.95;;;3.00;99.90;;;;;;5013413;28;20424;-69
2021/12/04 04:27:27;;;;;;;16.70;10.02;;;3.00;99.90;;;;;;5011004;28;20495;-70
2021/12/04 04:29:53;;;;;;;10.65;9.48;;;3.10;99.90;;;;;;5012435;28;20045;-69
2021/12/04 04:32:18;;;;;;;14.32;10.32;;;3.10;99.90;;;;;;5012853;28;20037;-70
2021/12/04 04:34:51;;;;;;;11.57;10.10;;;3.10;99.90;;;;;;5013467;28;20025;-70
2021/12/04 04:40:27;;;;;;;18.27;11.13;;;3.00;99.90;;;;;;5012974;28;20026;-70
2021/12/04 04:59:26;;;;;;;13.48;10.90;;;2.90;99.90;;;;;;5012913;28;20246;-69
2021/12/04 05:12:58;;;;;;;15.30;11.15;;;2.90;99.90;;;;;;5012452;28;20133;-70
2021/12/04 05:15:40;;;;;;;17.45;11.70;;;2.90;99.90;;;;;;5012741;28;20125;-69
2021/12/04 05:21:03;;;;;;;15.90;11.10;;;2.90;99.90;;;;;;5012701;28;20022;-70
2021/12/04 05:23:29;;;;;;;13.40;10.13;;;2.80;99.90;;;;;;5011192;28;20161;-69
2021/12/04 05:25:55;;;;;;;13.13;11.32;;;2.90;99.90;;;;;;5011000;28;20034;-70
2021/12/04 05:28:20;;;;;;;13.00;11.10;;;2.80;99.90;;;;;;5012280;28;20069;-70
2021/12/04 05:30:46;;;;;;;13.20;10.82;;;2.70;99.90;;;;;;5012391;28;20040;-69
2021/12/04 05:33:12;;;;;;;11.13;10.10;;;2.80;99.90;;;;;;5011512;28;20026;-68
2021/12/04 05:35:38;;;;;;;13.63;10.45;;;2.80;99.90;;;;;;5012640;28;20034;-69
2021/12/04 05:38:04;;;;;;;11.88;10.68;;;2.80;99.90;;;;;;5011646;28;20030;-69
2021/12/04 05:40:29;;;;;;;12.95;11.57;;;2.80;99.90;;;;;;5012728;28;20549;-69
2021/12/04 05:43:01;;;;;;;15.02;10.75;;;2.90;99.90;;;;;;5012115;28;20056;-69
2021/12/04 05:45:28;;;;;;;13.80;9.93;;;2.90;99.90;;;;;;5011946;28;20033;-70
2021/12/04 05:48:12;;;;;;;12.18;10.15;;;2.90;99.90;;;;;;5011678;28;20026;-69
2021/12/04 05:53:25;;;;;;;10.45;9.30;;;2.90;99.90;;;;;;5011974;28;20030;-70
2021/12/04 05:55:54;;;;;;;;;;;2.90;99.90;;;;;;4318768;28;10000814;-70
2021/12/04 05:58:25;;;;;;;10.30;9.40;;;2.90;99.90;;;;;;5007932;28;20011;-69
2021/12/04 06:00:53;;;;;;;10.10;9.15;;;2.80;99.90;;;;;;5008892;28;20026;-70
2021/12/04 06:03:19;;;;;;;10.98;8.65;;;2.70;99.90;;;;;;5008070;28;20345;-68
2021/12/04 06:05:45;;;;;;;9.70;8.70;;;2.80;99.90;;;;;;5008566;28;20045;-69
2021/12/04 06:08:11;;;;;;;9.63;8.50;;;2.80;99.90;;;;;;5006967;28;20025;-68
2021/12/04 06:10:36;;;;;;;8.60;7.75;;;2.80;99.90;;;;;;5009017;28;20399;-69
2021/12/04 06:13:02;;;;;;;8.23;7.43;;;2.80;99.90;;;;;;5009035;28;20045;-70
2021/12/04 06:15:28;;;;;;;8.60;7.88;;;2.80;99.90;;;;;;5008763;28;20405;-69
2021/12/04 06:17:55;;;;;;;9.20;8.30;;;2.80;99.90;;;;;;5008058;28;20376;-70
2021/12/04 06:23:06;;;;;;;9.25;8.52;;;2.70;99.90;;;;;;5027855;28;20044;-74
2021/12/04 06:25:31;;;;;;;14.13;7.85;;;2.70;99.90;;;;;;5028439;28;20037;-74
2021/12/04 06:27:57;;;;;;;9.07;8.05;;;2.80;99.90;;;;;;5046775;28;20663;-72
2021/12/04 06:30:25;;;;;;;9.27;7.25;;;2.80;99.90;;;;;;5043025;28;20069;-73
2021/12/04 06:32:53;;;;;;;9.48;8.07;;;2.90;99.90;;;;;;5013707;28;20033;-75
2021/12/04 06:35:20;;;;;;;12.70;8.55;;;2.80;99.90;;;;;;5047653;28;20041;-72
2021/12/04 06:37:48;;;;;;;13.18;8.18;;;2.80;99.90;;;;;;5047169;28;20035;-72
2021/12/04 06:40:14;;;;;;;9.52;8.55;;;2.80;99.90;;;;;;5048278;28;20024;-71
2021/12/04 06:42:41;;;;;;;9.80;8.77;;;2.80;99.90;;;;;;4700182;28;10000621;-72
2021/12/04 06:45:07;;;;;;;14.82;8.63;;;2.90;99.90;;;;;;5034752;28;20099;-69
2021/12/04 06:47:34;;;;;;;8.32;7.63;;;2.90;99.90;;;;;;5040766;28;20071;-73
2021/12/04 06:50:07;;;;;;;8.48;7.78;;;2.90;99.90;;;;;;5048564;28;20024;-72
2021/12/04 06:52:32;;;;;;;11.70;7.88;;;2.90;99.90;;;;;;5053137;28;20032;-72
2021/12/04 06:55:00;;;;;;;8.85;7.93;;;2.80;99.90;;;;;;5053949;28;20029;-72
2021/12/04 06:57:31;;;;;;;9.43;8.60;;;2.90;99.90;;;;;;5054187;28;20029;-72
2021/12/04 06:59:58;;;;;;;9.25;8.32;;;2.90;99.90;;;;;;5043636;28;20020;-73
2021/12/04 07:02:24;;;;;;;12.57;8.15;;;2.90;99.90;;;;;;5054623;28;20086;-72
2021/12/04 07:04:49;;;;;;;9.55;8.75;;;2.90;99.90;;;;;;5054395;28;20029;-72
2021/12/04 07:07:16;;;;;;;10.07;9.15;;;2.90;99.90;;;;;;5053710;28;20025;-71
2021/12/04 07:09:42;;;;;;;10.13;8.25;;;3.00;99.90;;;;;;5054325;28;20543;-71
2021/12/04 07:12:09;;;;;;;8.55;7.78;;;3.00;99.90;;;;;;5054294;28;20059;-72
2021/12/04 07:14:35;;;;;;;12.18;7.55;;;3.00;99.90;;;;;;5054202;28;20454;-72
2021/12/04 07:17:03;;;;;;;11.18;8.43;;;3.00;99.90;;;;;;5036491;28;20106;-74
2021/12/04 07:19:30;;;;;;;9.45;7.70;;;3.00;99.90;;;;;;5054261;28;20040;-74
2021/12/04 07:21:55;;;;;;;11.13;7.55;;;3.00;99.90;;;;;;5053286;28;20049;-72
2021/12/04 07:24:21;;;;;;;13.05;9.13;;;3.00;99.90;;;;;;5036351;28;20114;-73
2021/12/04 07:26:47;;;;;;;10.88;7.65;;;3.10;99.90;;;;;;5053951;28;20059;-75
2021/12/04 07:29:13;;;;;;;12.10;8.18;;;3.00;99.90;;;;;;5054016;28;20040;-74
2021/12/04 07:31:39;;;;;;;11.93;7.10;;;3.00;99.90;;;;;;5036347;28;20035;-72
2021/12/04 07:34:06;;;;;;;8.32;6.88;;;3.10;99.90;;;;;;4684251;28;10000430;-74
2021/12/04 07:36:32;;;;;;;9.48;7.28;;;3.10;99.90;;;;;;5033069;28;20067;-73
2021/12/04 07:38:59;;;;;;;9.73;8.15;;;3.10;99.90;;;;;;5050460;28;20498;-74
2021/12/04 07:41:25;;;;;;;9.80;7.97;;;3.00;99.90;;;;;;5051010;28;20445;-73
2021/12/04 07:43:51;;;;;;;7.72;7.03;;;3.00;99.90;;;;;;5050696;28;20028;-72
2021/12/04 07:46:17;;;;;;;11.25;7.55;;;3.20;99.90;;;;;;5033151;28;20370;-72
2021/12/04 07:48:43;;;;;;;10.05;6.75;;;;;;;;;;5038381;28;20030;-74
2021/12/04 07:51:09;;;;;;;9.10;8.18;;;3.20;99.90;;;;;;5051122;28;20037;-73
2021/12/04 07:53:35;;;;;;;8.90;7.60;;;3.30;99.90;;;;;;5050380;28;20375;-73
2021/12/04 07:56:01;;;;;;;16.15;6.28;;;3.30;99.90;;;;;;5051211;28;20036;-73
2021/12/04 07:58:27;;;;;;;7.07;6.38;;;3.40;99.90;;;;;;5050188;28;20029;-72
2021/12/04 08:00:53;;;;;;;8.68;6.05;;;4.40;99.90;;;;;;5050726;28;20021;-74
2021/12/04 08:03:18;;;;;;;7.50;6.65;;;3.40;99.90;;;;;;5050485;28;20261;-75
2021/12/04 08:05:46;;;;;;;7.28;6.57;;;3.40;99.90;;;;;;5050656;28;20056;-75
2021/12/04 08:08:12;;;;;;;7.03;5.55;;;3.40;99.90;;;;;;5031769;28;20028;-73
2021/12/04 08:10:38;;;;;;;6.53;5.68;;;3.50;99.90;;;;;;5032151;28;20135;-73
2021/12/04 08:13:04;;;;;;;10.82;5.90;;;3.50;99.90;;;;;;5050149;28;20104;-72
2021/12/04 08:15:31;;;;;;;16.50;6.95;;;3.50;99.90;;;;;;5050635;28;20029;-73
2021/12/04 08:17:57;;;;;;;6.80;5.75;;;3.40;99.90;;;;;;5050083;28;20438;-73
2021/12/04 08:20:25;;;;;;;9.07;5.45;;;3.50;99.90;;;;;;5049817;28;20041;-74
2021/12/04 08:22:51;;;;;;;7.78;5.72;;;3.50;99.90;;;;;;5050283;28;20017;-73
2021/12/04 08:25:18;;;;;;;5.35;4.85;;;3.50;99.90;;;;;;5049750;28;20545;-72
2021/12/04 08:27:46;;;;;;;8.25;5.65;;;3.60;99.90;;;;;;5049964;28;20051;-72
2021/12/04 08:30:18;;;;;;;10.20;6.15;;;3.60;99.90;;;;;;5049848;28;20033;-73
2021/12/04 08:32:44;;;;;;;9.55;5.38;;;3.60;99.90;;;;;;5049795;28;20025;-73
2021/12/04 08:35:12;;;;;;;12.48;6.70;;;3.70;99.90;;;;;;5046953;28;20162;-73
2021/12/04 08:37:37;;;;;;;8.88;6.75;;;3.60;99.90;;;;;;5050320;28;20021;-71
2021/12/04 08:40:10;;;;;;;12.38;5.72;;;3.50;99.90;;;;;;5049837;28;20380;-72
2021/12/04 08:42:36;;;;;;;8.32;6.60;;;3.60;99.90;;;;;;5049815;28;20452;-71
2021/12/04 08:45:02;;;;;;;9.25;5.53;;;3.60;99.90;;;;;;5047014;28;20034;-71
2021/12/04 08:47:28;;;;;;;8.45;5.63;;;3.70;99.90;;;;;;5048551;28;20102;-73
2021/12/04 08:49:53;;;;;;;9.65;6.28;;;3.80;99.90;;;;;;5049669;28;20082;-74
2021/12/04 08:52:19;;;;;;;8.45;6.22;;;3.80;99.90;;;;;;5039013;28;20033;-75
2021/12/04 08:54:45;;;;;;;9.75;6.38;;;3.80;99.90;;;;;;5030040;28;20164;-73
2021/12/04 08:57:11;;;;;;;11.02;6.25;;;3.90;99.90;;;;;;5031379;28;20112;-73
2021/12/04 08:59:37;;;;;;;6.72;6.10;;;3.90;99.90;;;;;;5050174;28;20096;-76
2021/12/04 09:02:03;;;;;;;9.68;6.35;;;4.00;99.90;;;;;;5050013;28;20025;-71
2021/12/04 09:04:31;;;;;;;7.20;5.88;;;4.00;99.90;;;;;;5049655;28;20033;-75
2021/12/04 09:06:58;;;;;;;7.75;5.95;;;4.00;99.90;;;;;;5049388;28;20035;-72
2021/12/04 09:09:24;;;;;;;9.68;7.15;;;3.90;99.90;;;;;;5049313;28;20067;-74
2021/12/04 09:11:59;;;;;;;9.35;6.82;;;3.90;99.90;;;;;;5048937;28;20112;-74
2021/12/04 09:14:27;;;;;;;8.27;7.00;;;3.80;99.90;;;;;;5048623;28;20175;-73
2021/12/04 09:16:55;;;;;;;6.95;6.35;;;3.80;99.90;;;;;;5048962;28;20075;-72
2021/12/04 09:19:22;;;;;;;7.53;6.82;;;3.70;99.90;;;;;;5047605;28;20062;-73
2021/12/04 09:21:48;;;;;;;9.75;7.55;;;3.70;99.90;;;;;;5048921;28;20493;-74
2021/12/04 09:24:16;;;;;;;8.25;6.88;;;3.80;99.90;;;;;;5048693;28;20040;-76
2021/12/04 09:27:08;;;;;;;12.00;8.43;;;3.70;99.90;;;;;;5049325;28;20478;-73
2021/12/04 09:59:06;;;;;;;8.73;7.75;;;3.60;99.90;;;;;;5046861;28;20040;-75
2021/12/04 10:14:04;;;;;;;9.45;8.55;;;3.80;99.90;;;;;;5052059;28;20406;-79
2021/12/04 10:34:51;;;;;;;35.63;19.48;;;3.90;99.90;;;;;;5055871;28;20064;-76
2021/12/04 10:37:24;;;;;;;15.52;12.18;;;3.90;99.90;;;;;;5037411;28;20020;-78
2021/12/04 10:39:53;;;;;;;10.15;9.00;;;3.90;99.90;;;;;;5037090;28;20072;-78
2021/12/04 10:42:24;;;;;;;9.45;8.65;;;4.00;99.90;;;;;;5055338;28;20017;-76
2021/12/04 10:44:55;;;;;;;11.32;8.95;;;4.00;99.90;;;;;;5037604;28;20124;-76
2021/12/04 10:47:24;;;;;;;11.45;9.07;;;4.00;99.90;;;;;;5055317;28;20033;-78
2021/12/04 10:53:03;;;;;;;9.30;8.45;;;4.00;99.90;;;;;;5012254;28;20111;-76
2021/12/04 10:58:37;;;;;;;9.88;8.93;;;4.00;99.90;;;;;;5041795;28;20494;-76
2021/12/04 11:25:31;;;;;;;9.95;9.05;;;4.30;99.90;;;;;;5050524;28;20356;-76
2021/12/04 11:28:11;;;;;;;11.05;10.05;;;4.30;99.90;;;;;;4345791;28;10000789;-76
2021/12/04 11:36:36;;;;;;;10.10;9.25;;;4.50;99.90;;;;;;5030978;28;20086;-78
2021/12/04 11:44:28;;;;;;;10.45;9.45;;;;;;;;;;5048499;28;20025;-77
2021/12/04 11:46:56;;;;;;;12.43;11.10;;;4.70;99.90;;;;;;5034757;28;20037;-75
2021/12/04 11:49:26;;;;;;;10.88;9.88;;;4.70;99.90;;;;;;5048056;28;20394;-73
2021/12/04 11:52:01;;;;;;;11.50;10.60;;;4.80;99.90;;;;;;5046951;28;20469;-77
2021/12/04 11:54:28;;;;;;;;;;;4.80;99.90;;;;;;5047998;28;20029;-76
2021/12/04 11:57:06;;;;;;;10.93;9.93;;;4.90;99.90;;;;;;5044054;28;19916;-76
2021/12/04 11:59:34;;;;;;;14.70;13.27;;;5.00;99.90;;;;;;5039140;28;20033;-76
2021/12/04 12:02:02;;;;;;;10.55;9.65;;;5.00;99.90;;;;;;5040452;28;20491;-76
2021/12/04 12:04:50;;;;;;;10.27;9.45;;;5.00;99.90;;;;;;5042912;28;20060;-76
2021/12/04 12:07:22;;;;;;;10.10;9.30;;;4.90;99.90;;;;;;5034467;28;20264;-76
2021/12/04 12:10:00;;;;;;;11.07;9.98;;;4.90;99.90;;;;;;5046828;28;20041;-77
2021/12/04 12:12:33;;;;;;;11.25;10.25;;;4.70;99.90;;;;;;5047688;28;20087;-72
2021/12/04 12:15:04;;;;;;;11.00;10.00;;;4.70;99.90;;;;;;5027605;28;20082;-71
2021/12/04 12:17:31;;;;;;;12.57;11.25;;;4.70;99.90;;;;;;5038920;28;20026;-71
2021/12/04 12:19:58;;;;;;;11.35;10.20;;;4.70;99.90;;;;;;5076657;23;20068;-68
2021/12/04 12:22:43;;;;;;;11.98;10.85;;;4.80;99.90;;;;;;5032508;28;20352;-69
2021/12/04 12:25:21;;;;;;;19.27;13.00;;;4.80;99.90;;;;;;5044011;28;20025;-68
2021/12/04 12:36:29;;;;;;;11.27;10.18;;;7.70;99.90;;;;;;5047519;28;20112;-70
2021/12/04 12:38:58;;;;;;;12.40;10.50;;;4.80;99.90;;;;;;5035341;28;20067;-69
2021/12/04 12:41:29;;;;;;;11.10;10.10;;;4.80;99.90;;;;;;5045886;28;20360;-69
2021/12/04 12:44:24;;;;;;;10.38;8.35;;;4.80;99.90;;;;;;5040469;28;20051;-69
2021/12/04 12:46:52;;;;;;;8.43;7.63;;;4.80;99.90;;;;;;5039606;28;20063;-68
2021/12/04 12:49:33;;;;;;;7.93;7.32;;;4.80;99.90;;;;;;5023229;28;20037;-71
2021/12/04 12:52:07;;;;;;;8.32;7.63;;;4.70;99.90;;;;;;5049039;28;20051;-69
2021/12/04 12:54:39;;;;;;;8.63;7.82;;;4.70;99.90;;;;;;5046669;28;20498;-69
2021/12/04 12:57:22;;;;;;;9.13;8.20;;;4.70;99.90;;;;;;5036570;28;20068;-70
2021/12/04 13:11:37;;;;;;;10.77;9.35;;;4.70;99.90;;;;;;5036747;28;20495;-69
2021/12/04 13:13:52;;;;;;;8.50;7.70;;;4.70;99.90;;;;;;5037725;28;20044;-69
2021/12/04 13:16:21;;;;;;;9.30;8.15;;;4.80;99.90;;;;;;5040290;28;20426;-68
2021/12/04 13:19:00;;;;;;;8.38;7.57;;;4.40;99.90;;;;;;5017379;28;20522;-68
2021/12/04 13:21:26;;;;;;;13.18;8.02;;;4.70;99.90;;;;;;5026110;28;20320;-68
2021/12/04 13:23:55;;;;;;;8.23;7.53;;;4.70;99.90;;;;;;5042198;28;20375;-69
2021/12/04 13:26:27;;;;;;;9.23;7.90;;;4.70;99.90;;;;;;5037025;28;20444;-68
2021/12/04 13:28:53;;;;;;;11.10;8.48;;;4.60;99.90;;;;;;5042996;28;20040;-69
2021/12/04 13:31:20;;;;;;;10.32;8.60;;;4.70;99.90;;;;;;5040588;28;20043;-70
2021/12/04 13:33:49;;;;;;;10.15;9.25;;;4.60;99.90;;;;;;5041480;28;20025;-69
2021/12/04 13:36:18;;;;;;;10.93;9.93;;;4.60;99.90;;;;;;5047146;28;20124;-70
2021/12/04 13:38:45;;;;;;;12.32;9.93;;;4.60;99.90;;;;;;5045076;28;20425;-70
2021/12/04 13:41:12;;;;;;;11.23;10.07;;;4.60;99.90;;;;;;5041491;28;20032;-72
2021/12/04 13:43:38;;;;;;;12.88;10.45;;;4.60;99.90;;;;;;5036943;28;20029;-73
2021/12/04 13:46:05;;;;;;;13.10;10.77;;;4.50;99.90;;;;;;5044884;28;20036;-70
2021/12/04 13:48:33;;;;;;;13.15;11.73;;;4.40;99.90;;;;;;5033620;28;20037;-70
2021/12/04 13:51:00;;;;;;;13.77;11.60;;;4.40;99.90;;;;;;5041655;28;20029;-72
2021/12/04 13:53:30;;;;;;;13.95;11.73;;;5.10;99.90;;;;;;5044866;28;20076;-70
2021/12/04 13:56:04;;;;;;;13.10;11.23;;;4.30;99.90;;;;;;5045772;28;20025;-68
2021/12/04 13:58:30;;;;;;;12.98;11.80;;;4.40;99.90;;;;;;5027423;28;20034;-68
2021/12/04 14:00:58;;;;;;;13.48;11.88;;;4.40;99.90;;;;;;5035497;28;20095;-68
2021/12/04 14:03:26;;;;;;;13.15;11.90;;;4.30;99.90;;;;;;5038735;28;20087;-68
2021/12/04 14:05:52;;;;;;;13.48;12.25;;;4.30;99.90;;;;;;5028763;28;20540;-69
2021/12/04 14:08:19;;;;;;;17.45;13.02;;;4.30;99.90;;;;;;5045606;28;20486;-68
2021/12/04 14:10:48;;;;;;;14.07;12.82;;;4.40;99.90;;;;;;5037962;28;20562;-69
2021/12/04 14:13:20;;;;;;;14.38;13.05;;;4.40;99.90;;;;;;5035430;28;20032;-68
2021/12/04 14:15:47;;;;;;;18.23;14.40;;;4.40;99.90;;;;;;5012670;28;20036;-69
2021/12/04 14:18:19;;;;;;;22.88;15.98;;;4.30;99.90;;;;;;5044875;28;20078;-68
2021/12/04 14:20:48;;;;;;;19.83;13.60;;;4.30;99.90;;;;;;5045385;28;20107;-70
2021/12/04 14:23:14;;;;;;;22.73;15.85;;;4.40;99.90;;;;;;5042521;28;20413;-70
2021/12/04 14:25:43;;;;;;;26.30;16.15;;;4.30;99.90;;;;;;5046155;28;20043;-71
2021/12/04 14:28:14;;;;;;;23.85;16.65;;;4.30;99.90;;;;;;5033646;28;20033;-69
2021/12/04 14:30:44;;;;;;;27.90;16.20;;;4.20;99.90;;;;;;5015302;28;20120;-69
2021/12/04 14:33:10;;;;;;;24.52;17.92;;;4.20;99.90;;;;;;5041088;28;20033;-69
2021/12/04 14:35:42;;;;;;;30.35;18.38;;;4.30;99.90;;;;;;5046721;28;20116;-69
2021/12/04 14:38:10;;;;;;;31.35;19.60;;;4.10;99.90;;;;;;5037221;28;20028;-68
2021/12/04 14:40:45;;;;;;;25.90;17.75;;;4.10;99.90;;;;;;5046825;28;20514;-71
2021/12/04 14:43:14;;;;;;;32.38;18.83;;;4.10;99.90;;;;;;5041540;28;20386;-70
2021/12/04 14:45:44;;;;;;;33.97;20.02;;;4.10;99.90;;;;;;5029488;28;20717;-70
2021/12/04 14:48:19;;;;;;;35.20;21.35;;;4.00;99.90;;;;;;5045019;28;20175;-70
2021/12/04 14:50:50;;;;;;;36.90;21.15;;;4.00;99.90;;;;;;5037887;28;20390;-69
2021/12/04 14:53:18;;;;;;;33.70;19.63;;;4.00;99.90;;;;;;5033502;28;20038;-69
2021/12/04 14:55:49;;;;;;;38.45;19.67;;;4.00;99.90;;;;;;5024577;28;20427;-70
2021/12/04 14:58:18;;;;;;;34.60;20.55;;;3.90;99.90;;;;;;5043793;28;20053;-70
2021/12/04 15:00:54;;;;;;;44.72;22.33;;;3.90;99.90;;;;;;5032086;28;20026;-68
2021/12/04 15:03:29;;;;;;;34.70;21.08;;;3.90;99.90;;;;;;5036711;28;20411;-70
2021/12/04 15:05:58;;;;;;;36.28;20.92;;;3.90;99.90;;;;;;5047105;28;20040;-71
2021/12/04 15:08:27;;;;;;;41.35;21.02;;;4.10;99.90;;;;;;5047515;28;20033;-72
2021/12/04 15:11:10;;;;;;;35.00;20.52;;;3.80;99.90;;;;;;5041393;28;20033;-69
2021/12/04 15:13:41;;;;;;;42.40;20.45;;;3.70;99.90;;;;;;5039063;28;20025;-70
2021/12/04 15:16:12;;;;;;;33.55;20.35;;;3.70;99.90;;;;;;5040821;28;20754;-71
2021/12/04 15:18:39;;;;;;;43.13;21.15;;;3.90;99.90;;;;;;5036950;28;20276;-68
2021/12/04 15:21:14;;;;;;;33.33;19.17;;;3.70;99.90;;;;;;5043518;28;20033;-72
2021/12/04 15:23:40;;;;;;;29.83;19.70;;;3.70;99.90;;;;;;5052492;28;20477;-71
2021/12/04 15:26:12;;;;;;;25.50;17.92;;;3.60;99.90;;;;;;5034242;28;20037;-69
2021/12/04 15:28:50;;;;;;;33.90;19.17;;;3.60;99.90;;;;;;5044914;28;20124;-70
2021/12/04 15:31:17;;;;;;;28.52;18.55;;;3.10;99.90;;;;;;5040777;28;20075;-69
2021/12/04 15:33:47;;;;;;;35.00;18.13;;;3.60;99.90;;;;;;5046282;28;20078;-70
2021/12/04 15:36:44;;;;;;;24.48;18.20;;;3.60;99.90;;;;;;5048845;28;20509;-70
2021/12/04 15:39:29;;;;;;;24.42;16.90;;;3.60;99.90;;;;;;5044099;28;20045;-69
2021/12/04 15:44:50;;;;;;;27.02;18.75;;;3.70;99.90;;;;;;5043467;28;20065;-69
2021/12/04 15:52:57;;;;;;;22.67;16.02;;;3.60;99.90;;;;;;5042787;28;20072;-70
2021/12/04 15:55:29;;;;;;;20.58;14.38;;;3.60;99.90;;;;;;5035039;28;20026;-68
2021/12/04 15:57:57;;;;;;;18.20;15.38;;;3.60;99.90;;;;;;5046155;28;20402;-69
2021/12/04 16:00:31;;;;;;;17.52;14.70;;;3.60;99.90;;;;;;5046669;28;20467;-68
2021/12/04 16:02:59;;;;;;;17.75;14.45;;;3.60;99.90;;;;;;5040624;28;20041;-70
2021/12/04 16:05:32;;;;;;;19.08;15.45;;;3.50;99.90;;;;;;5048522;28;20044;-68
2021/12/04 16:08:07;;;;;;;24.88;15.35;;;3.60;99.90;;;;;;5041219;28;20084;-69
2021/12/04 16:10:35;;;;;;;20.25;15.90;;;3.60;99.90;;;;;;5044752;28;20498;-71
2021/12/04 16:13:03;;;;;;;22.63;16.27;;;4.20;99.90;;;;;;5048378;28;20036;-70